createdAt,value
2022-12-12T00:02:18.234Z,98765.23
2022-12-12T00:04:46.288Z,98766.94
2022-12-12T00:07:15.211Z,98763.09
2022-12-12T00:09:45.188Z,98762.19
2022-12-12T00:12:15.229Z,98762.98
2022-12-12T00:14:43.283Z,98762.73
2022-12-12T00:17:11.278Z,98761.48
2022-12-12T00:19:43.066Z,98757.52
2022-12-12T00:22:12.405Z,98753.63
2022-12-12T00:24:41.225Z,98752.08
2022-12-12T00:27:09.441Z,98746.42
2022-12-12T00:29:39.637Z,98741.53
2022-12-12T00:32:10.754Z,98739.63
2022-12-12T00:34:40.864Z,98737.13
2022-12-12T00:37:10.784Z,98736.20
2022-12-12T00:39:41.213Z,98733.19
2022-12-12T00:42:09.513Z,98730.08
2022-12-12T00:44:37.592Z,98732.79
2022-12-12T00:51:31.205Z,98728.17
2022-12-12T00:54:01.309Z,98723.12
2022-12-12T00:56:40.025Z,98729.16
2022-12-12T00:59:09.812Z,98727.38
2022-12-12T01:01:41.661Z,98724.31
2022-12-12T01:04:14.845Z,98727.29
2022-12-12T01:14:16.066Z,98719.99
2022-12-12T01:16:47.469Z,98718.63
2022-12-12T01:19:18.713Z,98710.58
2022-12-12T01:21:49.619Z,98710.72
2022-12-12T01:24:18.588Z,98709.30
2022-12-12T01:26:47.878Z,98710.41
2022-12-12T01:29:18.378Z,98701.70
2022-12-12T01:31:46.501Z,98700.52
2022-12-12T01:34:15.239Z,98699.05
2022-12-12T01:36:44.692Z,98699.52
2022-12-12T01:39:13.353Z,98695.88
2022-12-12T01:41:42.951Z,98693.77
2022-12-12T01:44:46.336Z,98691.77
2022-12-12T01:47:17.016Z,98692.52
2022-12-12T01:50:06.961Z,98685.15
2022-12-12T01:52:43.707Z,98680.52
2022-12-12T01:55:20.137Z,98676.81
2022-12-12T01:57:55.186Z,98667.58
2022-12-12T02:00:29.167Z,98666.77
2022-12-12T02:03:23.369Z,98661.86
2022-12-12T02:05:55.074Z,98660.70
2022-12-12T02:08:24.464Z,98662.19
2022-12-12T02:10:52.425Z,98660.16
2022-12-12T02:13:26.218Z,98661.77
2022-12-12T02:16:19.798Z,98658.80
2022-12-12T02:18:50.062Z,98657.62
2022-12-12T02:21:38.306Z,98658.62
2022-12-12T02:24:19.368Z,98654.52
2022-12-12T02:27:25.444Z,98650.69
2022-12-12T02:30:07.060Z,98652.19
2022-12-12T02:33:04.878Z,98647.61
2022-12-12T02:35:59.175Z,98645.65
2022-12-12T02:38:40.319Z,98644.74
2022-12-12T02:41:14.286Z,98645.55
2022-12-12T02:44:25.308Z,98646.05
2022-12-12T02:51:30.603Z,98636.71
2022-12-12T02:54:01.546Z,98632.27
2022-12-12T02:56:47.014Z,98626.26
2022-12-12T03:00:01.237Z,98626.26
2022-12-12T03:02:32.480Z,98622.66
2022-12-12T03:05:50.983Z,98618.64
2022-12-12T03:08:35.662Z,98622.34
2022-12-12T03:11:08.165Z,98622.11
2022-12-12T03:13:51.411Z,98620.48
2022-12-12T03:16:25.843Z,98617.67
2022-12-12T03:19:26.625Z,98619.98
2022-12-12T03:22:11.513Z,98618.06
2022-12-12T03:25:02.412Z,98620.56
2022-12-12T03:27:48.725Z,98614.10
2022-12-12T03:30:47.291Z,98615.34
2022-12-12T03:33:19.463Z,98613.55
2022-12-12T03:36:20.853Z,98613.73
2022-12-12T03:39:34.949Z,98611.51
2022-12-12T03:42:12.857Z,98614.79
2022-12-12T03:44:49.429Z,98614.10
2022-12-12T03:51:27.970Z,98614.00
2022-12-12T03:53:58.593Z,98610.73
2022-12-12T03:56:31.577Z,98610.05
2022-12-12T03:59:09.329Z,98608.67
2022-12-12T04:01:46.341Z,98606.29
2022-12-12T04:04:37.263Z,98606.16
2022-12-12T04:07:21.951Z,98604.95
2022-12-12T04:10:14.777Z,98607.30
2022-12-12T04:13:08.808Z,98606.21
2022-12-12T04:15:52.076Z,98604.02
2022-12-12T04:18:35.095Z,98597.23
2022-12-12T04:22:06.419Z,98599.46
2022-12-12T04:24:43.946Z,98595.52
2022-12-12T04:27:34.695Z,98596.15
2022-12-12T04:30:09.363Z,98593.77
2022-12-12T04:32:56.294Z,98591.04
2022-12-12T04:35:32.193Z,98589.98
2022-12-12T04:38:07.808Z,98590.88
2022-12-12T04:40:44.811Z,98592.02
2022-12-12T04:43:40.402Z,98593.23
2022-12-12T04:47:03.683Z,98588.27
2022-12-12T04:49:35.689Z,98595.15
2022-12-12T04:52:09.998Z,98592.38
2022-12-12T04:54:58.895Z,98585.32
2022-12-12T04:57:36.096Z,98581.55
2022-12-12T05:00:10.931Z,98585.80
2022-12-12T05:03:08.295Z,98586.35
2022-12-12T05:06:03.484Z,98587.46
2022-12-12T05:08:48.419Z,98582.63
2022-12-12T05:11:21.851Z,98580.91
2022-12-12T05:13:53.978Z,98583.58
2022-12-12T05:16:30.186Z,98580.19
2022-12-12T05:19:00.632Z,98579.59
2022-12-12T05:21:28.727Z,98579.38
2022-12-12T05:23:59.768Z,98578.02
2022-12-12T05:26:31.027Z,98578.29
2022-12-12T05:29:06.879Z,98575.82
2022-12-12T05:31:37.816Z,98576.65
2022-12-12T05:34:09.966Z,98573.38
2022-12-12T05:36:55.213Z,98580.38
2022-12-12T05:39:26.079Z,98580.92
2022-12-12T05:41:57.893Z,98580.77
2022-12-12T05:44:30.520Z,98579.98
2022-12-12T05:46:59.793Z,98579.15
2022-12-12T05:49:30.117Z,98577.41
2022-12-12T05:51:59.406Z,98578.78
2022-12-12T05:54:33.253Z,98581.44
2022-12-12T05:57:02.065Z,98583.39
2022-12-12T05:59:30.802Z,98582.60
2022-12-12T06:01:59.677Z,98587.13
2022-12-12T06:04:28.058Z,98587.04
2022-12-12T06:06:56.141Z,98588.81
2022-12-12T06:09:26.720Z,98583.84
2022-12-12T06:11:54.862Z,98581.46
2022-12-12T06:14:27.023Z,98586.26
2022-12-12T06:17:00.422Z,98580.51
2022-12-12T06:19:31.220Z,98579.83
2022-12-12T06:21:59.257Z,98579.26
2022-12-12T06:24:29.154Z,98573.42
2022-12-12T06:26:57.614Z,98576.08
2022-12-12T06:29:26.782Z,98569.52
2022-12-12T06:31:57.556Z,98570.60
2022-12-12T06:34:28.207Z,98570.57
2022-12-12T06:36:57.133Z,98569.67
2022-12-12T06:39:26.372Z,98566.02
2022-12-12T06:41:54.300Z,98569.48
2022-12-12T06:44:25.771Z,98571.31
2022-12-12T06:48:14.864Z,98567.00
2022-12-12T06:50:46.376Z,98573.55
2022-12-12T06:53:15.870Z,98579.34
2022-12-12T06:55:46.119Z,98580.95
2022-12-12T06:58:21.602Z,98580.33
2022-12-12T07:00:54.682Z,98573.45
2022-12-12T07:03:24.692Z,98576.73
2022-12-12T07:05:54.323Z,98582.67
2022-12-12T07:08:23.207Z,98580.63
2022-12-12T07:10:51.493Z,98584.41
2022-12-12T07:13:19.520Z,98570.63
2022-12-12T07:15:50.747Z,98573.52
2022-12-12T07:18:18.984Z,98575.68
2022-12-12T07:20:47.039Z,98582.92
2022-12-12T07:23:17.076Z,98576.19
2022-12-12T07:25:46.729Z,98575.98
2022-12-12T07:28:15.834Z,98582.92
2022-12-12T07:30:48.553Z,98584.95
2022-12-12T07:33:23.333Z,98584.91
2022-12-12T07:36:00.824Z,98593.59
2022-12-12T07:38:29.324Z,98591.63
2022-12-12T07:41:06.373Z,98591.95
2022-12-12T07:43:44.226Z,98589.05
2022-12-12T07:46:27.465Z,98586.71
2022-12-12T07:48:58.974Z,98585.70
2022-12-12T07:51:49.431Z,98593.25
2022-12-12T07:54:39.142Z,98589.95
2022-12-12T07:57:08.503Z,98590.67
2022-12-12T08:03:13.387Z,98593.80
2022-12-12T08:05:43.950Z,98593.13
2022-12-12T08:08:13.695Z,98589.30
2022-12-12T08:10:43.266Z,98589.00
2022-12-12T08:13:14.492Z,98589.72
2022-12-12T08:15:44.415Z,98587.28
2022-12-12T08:18:22.179Z,98592.95
2022-12-12T08:20:57.368Z,98589.63
2022-12-12T08:23:28.009Z,98595.05
2022-12-12T08:26:05.906Z,98597.11
2022-12-12T08:28:33.819Z,98592.46
2022-12-12T08:37:36.100Z,98590.67
2022-12-12T08:40:15.289Z,98591.37
2022-12-12T08:42:51.992Z,98590.30
2022-12-12T08:45:33.602Z,98588.30
2022-12-12T08:48:07.120Z,98586.44
2022-12-12T08:50:36.059Z,98585.42
2022-12-12T08:53:11.225Z,98586.27
2022-12-12T08:55:50.517Z,98588.55
2022-12-12T08:58:22.456Z,98587.08
2022-12-12T09:00:52.903Z,98578.25
2022-12-12T09:03:29.383Z,98585.11
2022-12-12T09:05:58.807Z,98580.65
2022-12-12T09:08:44.421Z,98582.66
2022-12-12T09:12:25.809Z,98573.39
2022-12-12T09:25:42.912Z,98582.63
2022-12-12T09:28:15.370Z,98585.77
2022-12-12T09:30:45.490Z,98582.88
2022-12-12T09:33:20.317Z,98583.08
2022-12-12T09:36:51.908Z,98586.09
2022-12-12T09:39:40.873Z,98580.91
2022-12-12T09:42:55.225Z,98584.30
2022-12-12T10:03:34.544Z,98594.55
2022-12-12T10:06:37.195Z,98594.02
2022-12-12T10:18:48.938Z,98595.13
2022-12-12T10:23:34.968Z,98588.23
2022-12-12T10:27:14.179Z,98587.79
2022-12-12T10:34:56.369Z,98587.39
2022-12-12T10:38:39.887Z,98582.02
2022-12-12T10:41:44.454Z,98582.27
2022-12-12T10:50:55.294Z,98586.11
2022-12-12T10:54:20.126Z,98581.25
2022-12-12T11:02:32.060Z,98576.93
2022-12-12T11:05:16.435Z,98580.73
2022-12-12T11:08:47.329Z,98576.44
2022-12-12T11:16:39.662Z,98582.27
2022-12-12T11:24:04.434Z,98569.64
2022-12-12T11:26:53.054Z,98572.80
2022-12-12T11:30:02.934Z,98567.36
2022-12-12T11:32:44.404Z,98579.96
2022-12-12T11:35:36.135Z,98580.70
2022-12-12T11:38:17.126Z,98568.65
2022-12-12T11:41:09.329Z,98577.77
2022-12-12T11:44:02.166Z,98574.25
2022-12-12T11:51:45.596Z,98576.47
2022-12-12T11:54:18.696Z,98576.04
2022-12-12T11:56:59.477Z,98577.34
2022-12-12T11:59:55.814Z,98581.02
2022-12-12T12:02:32.936Z,98581.87
2022-12-12T12:05:40.036Z,98582.61
2022-12-12T12:08:29.108Z,98586.79
2022-12-12T12:11:33.743Z,98580.70
2022-12-12T12:14:28.211Z,98585.96
2022-12-12T12:17:04.602Z,98587.63
2022-12-12T12:20:12.855Z,98580.84
2022-12-12T12:23:18.601Z,98575.86
2022-12-12T12:26:05.115Z,98590.79
2022-12-12T12:28:38.973Z,98582.71
2022-12-12T12:31:24.996Z,98584.57
2022-12-12T12:33:59.218Z,98581.92
2022-12-12T12:37:11.544Z,98583.27
2022-12-12T12:40:12.247Z,98573.66
2022-12-12T12:42:55.836Z,98582.18
2022-12-12T12:49:46.274Z,98579.02
2022-12-12T12:52:20.553Z,98586.45
2022-12-12T12:54:50.294Z,98585.04
2022-12-12T12:57:26.107Z,98589.44
2022-12-12T12:59:59.862Z,98587.89
2022-12-12T13:02:42.607Z,98593.10
2022-12-12T13:05:27.173Z,98595.46
2022-12-12T13:08:16.328Z,98600.91
2022-12-12T13:11:03.619Z,98605.23
2022-12-12T13:13:41.546Z,98602.36
2022-12-12T13:16:15.880Z,98610.61
2022-12-12T13:18:49.219Z,98612.15
2022-12-12T13:21:35.474Z,98610.03
2022-12-12T13:24:23.629Z,98613.27
2022-12-12T13:27:13.602Z,98609.88
2022-12-12T13:30:12.788Z,98613.63
2022-12-12T13:33:02.512Z,98618.42
2022-12-12T13:35:51.477Z,98618.95
2022-12-12T13:38:29.036Z,98624.42
2022-12-12T13:41:07.270Z,98628.13
2022-12-12T13:43:41.331Z,98631.77
2022-12-12T13:57:22.801Z,98636.23
2022-12-12T13:59:58.805Z,98633.61
2022-12-12T14:02:40.564Z,98636.66
2022-12-12T14:05:17.261Z,98636.41
2022-12-12T14:08:18.917Z,98642.63
2022-12-12T14:11:01.579Z,98643.14
2022-12-12T14:24:18.130Z,98651.37
2022-12-12T14:26:49.291Z,98653.70
2022-12-12T14:29:18.870Z,98657.88
2022-12-12T14:32:14.680Z,98655.56
2022-12-12T14:35:17.869Z,98654.89
2022-12-12T14:38:05.558Z,98653.94
2022-12-12T14:40:42.608Z,98654.94
2022-12-12T14:43:23.282Z,98655.25
2022-12-12T14:45:59.476Z,98660.58
2022-12-12T14:48:31.614Z,98661.70
2022-12-12T14:51:27.549Z,98662.20
2022-12-12T14:54:02.145Z,98663.20
2022-12-12T14:56:39.161Z,98664.86
2022-12-12T14:59:23.404Z,98667.83
2022-12-12T15:02:30.147Z,98668.75
2022-12-12T15:05:05.509Z,98673.06
2022-12-12T15:07:39.137Z,98670.45
2022-12-12T15:10:31.295Z,98663.98
2022-12-12T15:13:03.109Z,98669.96
2022-12-12T15:15:35.509Z,98670.49
2022-12-12T15:18:06.642Z,98669.23
2022-12-12T15:20:38.912Z,98666.59
2022-12-12T15:23:09.130Z,98669.91
2022-12-12T15:25:47.339Z,98668.20
2022-12-12T15:28:20.019Z,98663.23
2022-12-12T15:30:54.067Z,98664.41
2022-12-12T15:33:26.562Z,98666.13
2022-12-12T15:36:02.579Z,98667.23
2022-12-12T15:38:35.264Z,98668.06
2022-12-12T15:41:13.000Z,98666.48
2022-12-12T15:43:44.930Z,98672.61
2022-12-12T15:46:16.466Z,98672.61
2022-12-12T15:48:49.518Z,98675.00
2022-12-12T15:51:24.989Z,98679.06
2022-12-12T15:57:16.750Z,98676.22
2022-12-12T15:59:58.590Z,98680.71
2022-12-12T16:02:33.090Z,98676.00
2022-12-12T16:05:20.457Z,98684.34
2022-12-12T16:11:27.698Z,98683.93
2022-12-12T16:13:59.416Z,98692.45
2022-12-12T16:16:50.092Z,98700.88
2022-12-12T16:19:29.862Z,98696.19
2022-12-12T16:22:07.431Z,98698.62
2022-12-12T16:24:53.063Z,98705.41
2022-12-12T16:27:22.600Z,98707.19
2022-12-12T16:29:55.775Z,98709.91
2022-12-12T16:32:25.646Z,98710.16
2022-12-12T16:34:56.443Z,98721.14
2022-12-12T16:37:26.463Z,98718.55
2022-12-12T16:39:55.822Z,98716.89
2022-12-12T16:42:31.675Z,98717.24
2022-12-12T16:45:01.396Z,98718.03
2022-12-12T16:47:32.664Z,98720.18
2022-12-12T16:50:07.812Z,98724.85
2022-12-12T16:52:40.093Z,98728.58
2022-12-12T16:55:21.180Z,98733.85
2022-12-12T16:57:52.717Z,98730.56
2022-12-12T17:00:23.014Z,98735.27
2022-12-12T17:02:57.781Z,98737.55
2022-12-12T17:05:30.151Z,98739.91
2022-12-12T17:07:59.916Z,98744.88
2022-12-12T17:10:36.816Z,98749.53
2022-12-12T17:13:08.482Z,98751.62
2022-12-12T17:15:38.980Z,98746.95
2022-12-12T17:18:08.527Z,98747.86
2022-12-12T17:20:38.948Z,98751.88
2022-12-12T17:23:27.944Z,98753.10
2022-12-12T17:26:03.560Z,98759.21
2022-12-12T17:28:36.444Z,98764.73
2022-12-12T17:31:10.585Z,98758.73
2022-12-12T17:34:07.298Z,98762.52
2022-12-12T17:36:38.664Z,98763.95
2022-12-12T17:39:08.546Z,98761.24
2022-12-12T17:41:38.049Z,98768.46
2022-12-12T17:44:14.644Z,98771.83
2022-12-12T17:46:44.190Z,98769.50
2022-12-12T17:49:14.834Z,98779.64
2022-12-12T17:51:44.987Z,98782.55
2022-12-12T17:54:17.329Z,98780.23
2022-12-12T17:56:56.301Z,98780.89
2022-12-12T17:59:29.745Z,98785.70
2022-12-12T18:02:02.178Z,98790.57
2022-12-12T18:04:38.942Z,98788.02
2022-12-12T18:07:10.447Z,98786.75
2022-12-12T18:09:41.482Z,98792.69
2022-12-12T18:12:16.134Z,98788.40
2022-12-12T18:14:47.050Z,98791.66
2022-12-12T18:17:21.340Z,98794.42
2022-12-12T18:19:53.280Z,98796.74
2022-12-12T18:22:24.480Z,98795.80
2022-12-12T18:24:57.156Z,98794.92
2022-12-12T18:27:27.982Z,98797.98
2022-12-12T18:30:01.085Z,98801.16
2022-12-12T18:32:31.179Z,98807.92
2022-12-12T18:35:02.496Z,98806.05
2022-12-12T18:37:32.764Z,98803.73
2022-12-12T18:40:02.651Z,98804.57
2022-12-12T18:42:34.971Z,98808.18
2022-12-12T18:45:12.689Z,98813.22
2022-12-12T18:47:47.935Z,98813.45
2022-12-12T18:50:20.067Z,98809.73
2022-12-12T18:52:51.297Z,98818.70
2022-12-12T18:55:28.567Z,98825.65
2022-12-12T18:58:05.049Z,98831.66
2022-12-12T19:00:41.159Z,98831.27
2022-12-12T19:03:13.197Z,98835.73
2022-12-12T19:05:57.342Z,98840.58
2022-12-12T19:08:28.460Z,98839.06
2022-12-12T19:11:04.561Z,98841.52
2022-12-12T19:13:44.157Z,98839.80
2022-12-12T19:16:18.475Z,98844.24
2022-12-12T19:18:50.144Z,98844.67
2022-12-12T19:21:32.499Z,98838.55
2022-12-12T19:24:07.992Z,98845.38
2022-12-12T19:26:41.814Z,98844.39
2022-12-12T19:29:18.945Z,98848.05
2022-12-12T19:31:53.906Z,98853.73
2022-12-12T19:34:32.634Z,98853.98
2022-12-12T19:37:03.695Z,98855.98
2022-12-12T19:39:35.646Z,98856.45
2022-12-12T19:42:08.835Z,98859.75
2022-12-12T19:44:45.701Z,98859.55
2022-12-12T19:51:36.538Z,98860.98
2022-12-12T19:54:26.251Z,98865.06
2022-12-12T19:57:04.276Z,98870.28
2022-12-12T19:59:39.801Z,98878.52
2022-12-12T20:02:14.341Z,98876.73
2022-12-12T20:04:48.310Z,98879.36
2022-12-12T20:07:20.104Z,98886.67
2022-12-12T20:09:52.578Z,98892.02
2022-12-12T20:12:22.849Z,98885.84
2022-12-12T20:14:54.597Z,98894.93
2022-12-12T20:17:28.772Z,98895.30
2022-12-12T20:20:00.018Z,98893.02
2022-12-12T20:22:30.200Z,98882.48
2022-12-12T20:25:04.001Z,98898.50
2022-12-12T20:27:36.122Z,98897.09
2022-12-12T20:30:08.575Z,98909.82
2022-12-12T20:32:40.192Z,98904.34
2022-12-12T20:35:12.452Z,98906.39
2022-12-12T20:37:43.240Z,98914.23
2022-12-12T20:40:16.138Z,98920.48
2022-12-12T20:42:57.129Z,98915.30
2022-12-12T20:45:32.408Z,98927.38
2022-12-12T20:48:32.118Z,98929.21
2022-12-12T20:51:02.531Z,98929.36
2022-12-12T20:53:36.668Z,98926.65
2022-12-12T20:56:12.282Z,98933.65
2022-12-12T20:58:43.035Z,98927.46
2022-12-12T21:01:19.791Z,98935.70
2022-12-12T21:03:51.869Z,98940.03
2022-12-12T21:06:27.062Z,98947.75
2022-12-12T21:09:00.490Z,98945.63
2022-12-12T21:11:33.086Z,98950.81
2022-12-12T21:14:07.702Z,98945.77
2022-12-12T21:16:40.170Z,98942.05
2022-12-12T21:19:13.872Z,98946.78
2022-12-12T21:21:45.646Z,98941.73
2022-12-12T21:24:17.624Z,98958.02
2022-12-12T21:26:48.433Z,98951.92
2022-12-12T21:29:19.462Z,98956.66
2022-12-12T21:31:51.871Z,98967.54
2022-12-12T21:34:23.240Z,98965.59
2022-12-12T21:36:56.048Z,98969.12
2022-12-12T21:39:30.006Z,98963.98
2022-12-12T21:42:00.248Z,98966.58
2022-12-12T21:44:29.655Z,98972.02
2022-12-12T21:51:13.502Z,98985.65
2022-12-12T21:53:43.752Z,98983.20
2022-12-12T21:56:17.946Z,98993.35
2022-12-12T21:58:48.191Z,98995.85
2022-12-12T22:01:21.683Z,98980.18
2022-12-12T22:03:50.893Z,98991.28
2022-12-12T22:06:22.832Z,98988.13
2022-12-12T22:08:52.270Z,98996.77
2022-12-12T22:11:40.562Z,99010.27
2022-12-12T22:14:12.404Z,99009.05
2022-12-12T22:16:41.778Z,99015.05
2022-12-12T22:19:13.418Z,99019.92
2022-12-12T22:21:46.703Z,99019.54
2022-12-12T22:24:17.559Z,99019.64
2022-12-12T22:26:49.394Z,99014.68
2022-12-12T22:29:20.484Z,99016.88
2022-12-12T22:31:52.674Z,99014.91
2022-12-12T22:34:26.593Z,99022.81
2022-12-12T22:36:57.738Z,99020.30
2022-12-12T22:39:28.611Z,99017.88
2022-12-12T22:41:58.392Z,99024.05
2022-12-12T22:44:27.661Z,99027.64
2022-12-12T22:47:25.353Z,99032.17
2022-12-12T22:49:54.367Z,99034.30
2022-12-12T22:52:26.512Z,99035.02
2022-12-12T22:54:55.887Z,99036.64
2022-12-12T22:57:25.991Z,99031.73
2022-12-12T22:59:55.117Z,99035.70
2022-12-12T23:02:25.258Z,99045.41
2022-12-12T23:04:55.116Z,99046.29
2022-12-12T23:07:24.378Z,99056.33
2022-12-12T23:09:53.563Z,99058.20
2022-12-12T23:12:24.346Z,99064.48
2022-12-12T23:14:53.390Z,99068.73
2022-12-12T23:17:25.633Z,99069.69
2022-12-12T23:19:54.632Z,99075.58
2022-12-12T23:22:24.938Z,99079.27
2022-12-12T23:24:53.868Z,99086.67
2022-12-12T23:27:23.086Z,99090.60
2022-12-12T23:29:53.743Z,99090.25
2022-12-12T23:32:24.693Z,99088.71
2022-12-12T23:34:55.228Z,99095.98
2022-12-12T23:37:24.399Z,99103.71
2022-12-12T23:39:53.665Z,99105.51
2022-12-12T23:42:22.618Z,99103.95
2022-12-12T23:44:51.622Z,99104.23
2022-12-12T23:47:49.143Z,99102.39
2022-12-12T23:50:18.725Z,99110.33
2022-12-12T23:52:47.730Z,99106.65
2022-12-12T23:55:18.175Z,99111.66
2022-12-12T23:57:48.253Z,99107.95
